Terminal Aerodrome Forecast
Issued by NWS Detroit/Pontiac, MI

Home | Current Version | Previous Version | Text Only | Print | Product List | Glossary On
Versions: 1 2 3 4 5 6 7 8 9 10 11 12 13 14 15 16 17 18 19 20 21 22 23 24 25 26
207
FTUS43 KDTX 161720
TAFDTW
TAF
KDTW 161720Z 1618/1724 10004KT 4SM BR SCT045 OVC070
      TEMPO 1618/1622 2SM -FZRAPL BR OVC045
     FM162200 10005KT 5SM -RA BR BKN022 OVC040
      TEMPO 1622/1702 2SM -FZRA OVC012
     FM170200 08006KT 2SM -RA BR OVC008
     FM170500 09006KT 1SM -RA BR OVC004
     FM171200 15006KT 3/4SM -SHRA BR OVC003
     FM171700 22012KT 5SM BR OVC015=

USA.gov is the U.S. government's official web portal to all federal, state and local government web resources and services.